Time;durP1;ratioP1;P1;durP2;ratioP2;P2;SDS_P1;SDS_P2;PMS_P1;PMS_P2;Temp;Humidity;BMP_temperature;BMP_pressure;BME280_temperature;BME280_humidity;BME280_pressure;Samples;Min_cycle;Max_cycle;Signal;HPM_P1;HPM_P2
2023/08/01 00:00:30;;;;;;;1.50;0.90;;;18.10;98.20;;;;;;5024489;28;20582;-79
2023/08/01 00:02:57;;;;;;;1.50;0.90;;;18.10;98.20;;;;;;5010774;28;20579;-78
2023/08/01 00:05:24;;;;;;;1.50;0.90;;;18.10;98.20;;;;;;5025942;28;20463;-79
2023/08/01 00:07:52;;;;;;;1.57;1.07;;;18.10;98.20;;;;;;5008395;28;20491;-79
2023/08/01 00:10:19;;;;;;;1.50;0.90;;;18.10;98.20;;;;;;5021305;28;20467;-79
2023/08/01 00:12:46;;;;;;;1.53;0.90;;;18.10;98.20;;;;;;5010072;28;20509;-78
2023/08/01 00:15:13;;;;;;;1.53;0.90;;;18.10;98.20;;;;;;5025474;28;20455;-77
2023/08/01 00:17:40;;;;;;;1.57;1.00;;;18.10;98.20;;;;;;5011375;28;21306;-78
2023/08/01 00:20:08;;;;;;;1.60;1.20;;;18.00;98.20;;;;;;5024615;28;20555;-79
2023/08/01 00:22:35;;;;;;;1.50;1.00;;;18.10;98.20;;;;;;5012025;28;21014;-77
2023/08/01 00:25:03;;;;;;;1.50;0.90;;;18.10;98.20;;;;;;5024486;28;20962;-79
2023/08/01 00:27:32;;;;;;;1.57;1.00;;;18.00;98.20;;;;;;5007836;28;20581;-78
2023/08/01 00:29:58;;;;;;;1.53;1.00;;;18.00;98.20;;;;;;5025046;28;20554;-80
2023/08/01 00:32:25;;;;;;;1.57;0.90;;;18.00;98.20;;;;;;5017669;28;20493;-80
2023/08/01 00:34:52;;;;;;;1.53;1.00;;;18.00;98.20;;;;;;5028951;28;20974;-80
2023/08/01 00:37:19;;;;;;;1.50;0.90;;;18.00;98.20;;;;;;5019556;28;20853;-80
2023/08/01 00:39:46;;;;;;;1.50;0.90;;;18.10;98.20;;;;;;5020256;28;20478;-81
2023/08/01 00:42:14;;;;;;;1.53;0.90;;;18.10;98.20;;;;;;5017496;28;20483;-80
2023/08/01 00:44:41;;;;;;;1.60;1.00;;;18.10;98.20;;;;;;5024128;28;20475;-81
2023/08/01 00:47:08;;;;;;;1.53;1.00;;;18.10;98.20;;;;;;5013418;28;20483;-81
2023/08/01 00:49:35;;;;;;;1.50;0.90;;;18.10;98.20;;;;;;5031963;28;20459;-82
2023/08/01 00:52:02;;;;;;;1.57;0.90;;;18.10;98.20;;;;;;5024265;28;20500;-81
2023/08/01 00:54:35;;;;;;;1.57;0.90;;;18.10;98.20;;;;;;5029971;28;20529;-82
2023/08/01 00:57:02;;;;;;;1.57;0.90;;;18.10;98.20;;;;;;5017653;28;20574;-82
2023/08/01 00:59:30;;;;;;;1.50;1.00;;;18.10;98.20;;;;;;5029516;28;20551;-82
2023/08/01 01:01:57;;;;;;;1.50;0.90;;;18.10;98.20;;;;;;5018356;28;20566;-81
2023/08/01 01:04:24;;;;;;;1.57;0.97;;;18.10;98.20;;;;;;5028450;28;20491;-80
2023/08/01 01:06:58;;;;;;;1.50;0.90;;;18.10;98.20;;;;;;5012355;28;20576;-81
2023/08/01 01:09:25;;;;;;;1.53;0.90;;;18.10;98.20;;;;;;5029564;28;20875;-81
2023/08/01 01:11:52;;;;;;;1.53;1.00;;;18.10;98.20;;;;;;5014992;28;20545;-81
2023/08/01 01:14:18;;;;;;;1.50;0.90;;;18.10;98.20;;;;;;5025926;28;20460;-81
2023/08/01 01:16:47;;;;;;;1.53;0.97;;;18.10;98.20;;;;;;5016005;28;20996;-81
2023/08/01 01:19:13;;;;;;;1.53;1.00;;;18.10;98.20;;;;;;5030765;28;20521;-81
2023/08/01 01:21:43;;;;;;;1.50;0.90;;;18.10;98.20;;;;;;5019998;28;20586;-81
2023/08/01 01:24:12;;;;;;;1.50;1.00;;;18.20;98.20;;;;;;5028610;28;20574;-81
2023/08/01 01:26:41;;;;;;;1.50;0.90;;;18.20;98.20;;;;;;5023058;28;20521;-82
2023/08/01 01:29:08;;;;;;;1.50;1.00;;;18.20;98.20;;;;;;5034113;28;20459;-82
2023/08/01 01:31:36;;;;;;;1.50;0.90;;;18.20;98.20;;;;;;5018069;28;20577;-82
2023/08/01 01:34:04;;;;;;;1.50;0.90;;;18.20;98.20;;;;;;5026751;28;20464;-82
2023/08/01 01:36:31;;;;;;;1.53;0.90;;;18.20;98.20;;;;;;5019513;28;20655;-81
2023/08/01 01:38:59;;;;;;;1.53;0.90;;;18.20;98.20;;;;;;5029664;28;20494;-81
2023/08/01 01:41:26;;;;;;;1.50;1.00;;;18.20;98.20;;;;;;5021791;28;20483;-81
2023/08/01 01:43:53;;;;;;;1.50;0.90;;;18.20;98.20;;;;;;5031534;28;20463;-80
2023/08/01 01:46:20;;;;;;;1.60;1.00;;;18.20;98.20;;;;;;5021577;28;20483;-82
2023/08/01 01:48:47;;;;;;;1.57;0.90;;;18.20;98.20;;;;;;5017656;28;21056;-81
2023/08/01 01:51:14;;;;;;;1.57;0.90;;;18.20;98.20;;;;;;5022615;28;20559;-81
2023/08/01 01:53:41;;;;;;;1.57;0.90;;;18.20;98.20;;;;;;5025885;28;20459;-82
2023/08/01 01:56:09;;;;;;;1.50;0.90;;;18.20;98.20;;;;;;5021527;28;20502;-82
2023/08/01 01:58:36;;;;;;;1.50;0.90;;;18.20;98.20;;;;;;5032920;28;20459;-81
2023/08/01 02:01:03;;;;;;;1.60;1.00;;;18.20;98.20;;;;;;5020447;28;20493;-81
2023/08/01 02:03:30;;;;;;;1.50;1.00;;;18.10;98.20;;;;;;5025328;28;20470;-80
2023/08/01 02:05:57;;;;;;;1.50;0.90;;;18.10;98.20;;;;;;5021837;28;20849;-81
2023/08/01 02:08:24;;;;;;;1.57;0.93;;;18.10;98.20;;;;;;5031231;28;20470;-82
2023/08/01 02:10:50;;;;;;;1.57;0.90;;;18.10;98.20;;;;;;5019475;28;20455;-82
2023/08/01 02:13:19;;;;;;;1.53;1.00;;;18.10;98.20;;;;;;5030153;28;20515;-82
2023/08/01 02:15:45;;;;;;;1.57;1.00;;;18.10;98.20;;;;;;5026572;28;20463;-82
2023/08/01 02:18:12;;;;;;;1.50;0.90;;;18.10;98.20;;;;;;5004084;28;20475;-81
2023/08/01 02:20:39;;;;;;;1.60;0.90;;;18.10;98.20;;;;;;5031517;28;20455;-82
2023/08/01 02:23:06;;;;;;;1.60;1.00;;;18.10;98.20;;;;;;5018926;28;20483;-81
2023/08/01 02:25:33;;;;;;;1.57;1.00;;;18.00;98.20;;;;;;5029587;28;20483;-81
2023/08/01 02:27:59;;;;;;;1.53;0.93;;;18.00;98.20;;;;;;5017549;28;20578;-82
2023/08/01 02:30:29;;;;;;;1.53;1.00;;;18.00;98.20;;;;;;5030331;28;20474;-81
2023/08/01 02:32:55;;;;;;;1.60;0.90;;;18.00;98.20;;;;;;5021110;28;20483;-82
2023/08/01 02:35:22;;;;;;;1.60;1.00;;;18.00;98.20;;;;;;5027536;28;20470;-82
2023/08/01 02:37:49;;;;;;;1.50;1.00;;;18.00;98.20;;;;;;5021288;28;20483;-81
2023/08/01 02:40:16;;;;;;;1.53;1.00;;;18.00;98.20;;;;;;5022241;28;21020;-80
2023/08/01 02:42:43;;;;;;;1.57;1.00;;;18.00;98.20;;;;;;5014744;28;20486;-82
2023/08/01 02:45:10;;;;;;;1.50;0.90;;;18.00;98.20;;;;;;5029784;28;20546;-81
2023/08/01 02:47:38;;;;;;;1.50;0.90;;;17.90;98.20;;;;;;5019956;28;20544;-81
2023/08/01 02:50:06;;;;;;;1.53;1.00;;;17.90;98.20;;;;;;5030473;28;20475;-81
2023/08/01 02:52:33;;;;;;;1.57;1.00;;;17.90;98.20;;;;;;5014508;28;20510;-81
2023/08/01 02:55:00;;;;;;;1.50;0.90;;;17.90;98.20;;;;;;5039795;28;20574;-81
2023/08/01 02:57:26;;;;;;;1.53;1.00;;;17.90;98.20;;;;;;5025905;28;20614;-82
2023/08/01 02:59:54;;;;;;;1.53;0.90;;;17.90;98.20;;;;;;5029022;28;20469;-81
2023/08/01 03:02:21;;;;;;;1.53;0.90;;;17.80;98.20;;;;;;5016867;28;20893;-82
2023/08/01 03:04:49;;;;;;;1.53;0.90;;;17.80;98.20;;;;;;5029321;28;20459;-81
2023/08/01 03:07:16;;;;;;;1.60;1.00;;;17.80;98.20;;;;;;5017229;28;20491;-81
2023/08/01 03:09:43;;;;;;;1.50;0.90;;;17.80;98.20;;;;;;5028571;28;20550;-82
2023/08/01 03:12:10;;;;;;;1.50;0.90;;;17.80;98.20;;;;;;5014930;28;20604;-81
2023/08/01 03:14:37;;;;;;;1.53;0.90;;;17.80;98.20;;;;;;5028967;28;20467;-81
2023/08/01 03:17:04;;;;;;;1.50;0.90;;;17.80;98.20;;;;;;5020605;28;20487;-82
2023/08/01 03:19:31;;;;;;;1.57;0.90;;;17.70;98.20;;;;;;5030900;28;20470;-81
2023/08/01 03:22:00;;;;;;;1.57;0.90;;;17.70;98.20;;;;;;5021436;28;20521;-83
2023/08/01 03:24:27;;;;;;;1.57;0.90;;;17.60;98.20;;;;;;5030332;28;20459;-81
2023/08/01 03:26:54;;;;;;;1.60;1.00;;;17.60;98.20;;;;;;5018587;28;20493;-83
2023/08/01 03:29:21;;;;;;;1.50;1.00;;;17.50;98.20;;;;;;5025596;28;20461;-82
2023/08/01 03:31:48;;;;;;;1.57;1.00;;;17.50;98.20;;;;;;5015981;28;20479;-82
2023/08/01 03:34:15;;;;;;;1.57;1.00;;;17.40;98.20;;;;;;5030782;28;21188;-83
2023/08/01 03:36:41;;;;;;;1.53;0.90;;;17.40;98.20;;;;;;5023108;28;20483;-81
2023/08/01 03:39:10;;;;;;;1.60;0.90;;;17.40;98.20;;;;;;5032840;28;20467;-82
2023/08/01 03:41:37;;;;;;;1.60;1.00;;;17.40;98.20;;;;;;5014739;28;20593;-82
2023/08/01 03:44:04;;;;;;;1.60;1.00;;;17.40;98.20;;;;;;5028587;28;20464;-81
2023/08/01 03:46:31;;;;;;;1.60;1.10;;;17.30;98.20;;;;;;5019525;28;20480;-82
2023/08/01 03:48:58;;;;;;;1.60;0.90;;;17.30;98.20;;;;;;5026807;28;20978;-82
2023/08/01 03:51:25;;;;;;;1.57;1.00;;;17.30;98.20;;;;;;5020711;28;20655;-82
2023/08/01 03:53:52;;;;;;;1.57;0.90;;;17.20;98.20;;;;;;5028653;28;20546;-82
2023/08/01 03:56:20;;;;;;;1.53;0.90;;;17.20;98.20;;;;;;5024671;23;20499;-82
2023/08/01 03:58:47;;;;;;;1.60;1.00;;;17.10;98.20;;;;;;5010411;28;20459;-81
2023/08/01 04:01:14;;;;;;;1.53;0.90;;;17.10;98.20;;;;;;4999811;28;20486;-81
2023/08/01 04:03:40;;;;;;;1.60;1.00;;;17.00;98.20;;;;;;5017970;28;20994;-81
2023/08/01 04:06:08;;;;;;;1.60;1.20;;;17.00;98.20;;;;;;4993808;28;20954;-80
2023/08/01 04:08:34;;;;;;;1.53;0.90;;;17.00;98.20;;;;;;4994350;28;20469;-81
2023/08/01 04:11:01;;;;;;;1.50;0.90;;;17.00;98.20;;;;;;4982721;28;20471;-82
2023/08/01 04:13:29;;;;;;;1.50;0.90;;;16.90;98.20;;;;;;4999657;28;20471;-82
2023/08/01 04:15:56;;;;;;;1.50;0.90;;;16.90;98.20;;;;;;4978760;28;20480;-82
2023/08/01 04:18:23;;;;;;;1.50;0.90;;;16.90;98.20;;;;;;4991671;28;20492;-83
2023/08/01 04:20:50;;;;;;;1.50;0.90;;;16.90;98.20;;;;;;4984536;28;20468;-80
2023/08/01 04:23:16;;;;;;;1.57;1.00;;;16.80;98.20;;;;;;5001297;28;20503;-81
2023/08/01 04:25:43;;;;;;;1.60;1.10;;;16.80;98.20;;;;;;5000389;28;20577;-83
2023/08/01 04:28:10;;;;;;;1.60;1.10;;;16.80;98.20;;;;;;4969677;28;20481;-83
2023/08/01 04:30:39;;;;;;;1.60;1.00;;;16.80;98.20;;;;;;4992894;28;20495;-79
2023/08/01 04:33:05;;;;;;;1.60;1.03;;;16.70;98.20;;;;;;4981219;28;20473;-82
2023/08/01 04:35:32;;;;;;;1.60;1.00;;;16.70;98.20;;;;;;4992653;28;20488;-82
2023/08/01 04:37:59;;;;;;;1.60;1.10;;;16.70;98.20;;;;;;4972468;28;20559;-81
2023/08/01 04:40:26;;;;;;;1.60;1.00;;;16.70;98.20;;;;;;4993505;28;20476;-82
2023/08/01 04:42:53;;;;;;;1.60;1.00;;;16.70;98.20;;;;;;4967878;28;21046;-82
2023/08/01 04:45:20;;;;;;;1.50;1.00;;;16.70;98.20;;;;;;4994297;28;20481;-82
2023/08/01 04:47:48;;;;;;;1.57;1.00;;;16.70;98.20;;;;;;4983818;28;20493;-81
2023/08/01 04:50:28;;;;;;;1.53;0.90;;;16.70;98.20;;;;;;4994084;28;20468;-82
2023/08/01 04:56:25;;;;;;;1.53;1.00;;;16.70;98.20;;;;;;4948119;28;20489;-83
2023/08/01 05:01:55;;;;;;;1.60;1.10;;;16.70;98.20;;;;;;4960550;28;20486;-83
2023/08/01 05:04:23;;;;;;;1.60;0.93;;;16.70;98.20;;;;;;4978912;28;20523;-82
2023/08/01 05:06:50;;;;;;;1.60;1.00;;;16.70;98.20;;;;;;4962830;28;21016;-80
2023/08/01 05:09:17;;;;;;;1.60;1.10;;;16.70;98.20;;;;;;4973674;28;20461;-79
2023/08/01 05:11:44;;;;;;;1.53;0.90;;;16.70;98.20;;;;;;4967169;28;20478;-82
2023/08/01 05:14:10;;;;;;;1.60;1.00;;;16.70;98.20;;;;;;4979897;28;20492;-82
2023/08/01 05:16:38;;;;;;;1.57;0.90;;;16.70;98.20;;;;;;4971879;28;20496;-82
2023/08/01 05:19:06;;;;;;;1.57;0.93;;;16.70;98.20;;;;;;4981843;28;20507;-83
2023/08/01 05:21:48;;;;;;;1.57;1.00;;;16.70;98.20;;;;;;4971764;28;20469;-80
2023/08/01 05:24:19;;;;;;;1.60;1.00;;;16.70;98.20;;;;;;4982718;28;20472;-79
2023/08/01 05:26:48;;;;;;;1.53;0.90;;;16.70;98.20;;;;;;4974800;28;20485;-82
2023/08/01 05:29:15;;;;;;;1.60;1.00;;;16.80;98.20;;;;;;4984057;28;20550;-83
2023/08/01 05:31:53;;;;;;;1.53;1.00;;;16.80;98.20;;;;;;4975331;28;20639;-81
2023/08/01 05:34:20;;;;;;;1.57;0.90;;;16.90;98.20;;;;;;4980597;28;20473;-82
2023/08/01 05:36:50;;;;;;;1.57;0.90;;;16.90;98.20;;;;;;4974515;28;20567;-82
2023/08/01 05:39:44;;;;;;;1.57;0.90;;;16.90;98.20;;;;;;4982579;28;20480;-79
2023/08/01 05:42:11;;;;;;;1.60;1.00;;;17.00;98.20;;;;;;4949078;28;20482;-82
2023/08/01 05:44:38;;;;;;;3.20;1.40;;;17.00;98.20;;;;;;4985799;28;20453;-82
2023/08/01 05:47:07;;;;;;;1.60;1.00;;;17.00;98.20;;;;;;4964598;28;20482;-81
2023/08/01 05:49:34;;;;;;;1.50;0.90;;;17.00;98.20;;;;;;4977535;28;20461;-82
2023/08/01 05:52:02;;;;;;;1.57;1.00;;;17.00;98.20;;;;;;4966674;28;20478;-83
2023/08/01 05:54:46;;;;;;;1.53;1.00;;;17.00;98.20;;;;;;4981101;28;20636;-81
2023/08/01 05:57:16;;;;;;;1.57;0.90;;;17.00;98.20;;;;;;4967882;28;20474;-81
2023/08/01 06:00:17;;;;;;;1.60;1.00;;;17.00;98.20;;;;;;4985110;28;20582;-81
2023/08/01 06:02:55;;;;;;;1.60;1.03;;;17.00;98.20;;;;;;4835255;29;20493;-80
2023/08/01 06:05:33;;;;;;;1.50;0.90;;;17.00;98.20;;;;;;4901623;28;20496;-82
2023/08/01 06:08:09;;;;;;;1.50;1.00;;;17.00;98.20;;;;;;4974397;28;20477;-82
2023/08/01 06:10:36;;;;;;;1.53;0.90;;;17.00;98.20;;;;;;4984566;28;20995;-82
2023/08/01 06:13:03;;;;;;;1.60;1.00;;;17.10;98.20;;;;;;4961946;28;20561;-81
2023/08/01 06:15:51;;;;;;;1.60;1.00;;;17.20;98.20;;;;;;4982176;28;20517;-80
2023/08/01 06:18:18;;;;;;;1.53;0.90;;;17.20;98.20;;;;;;4953287;28;20478;-80
2023/08/01 06:23:27;;;;;;;1.57;0.90;;;17.40;98.20;;;;;;4955227;28;20544;-81
2023/08/01 06:25:54;;;;;;;1.57;0.90;;;17.40;98.20;;;;;;4971683;28;20483;-81
2023/08/01 06:28:24;;;;;;;1.60;0.90;;;17.50;98.20;;;;;;4986738;28;20481;-80
2023/08/01 06:30:51;;;;;;;1.60;0.93;;;17.60;98.20;;;;;;4972305;28;21016;-80
2023/08/01 06:33:36;;;;;;;1.57;0.97;;;17.70;98.20;;;;;;4974016;28;20582;-80
2023/08/01 06:36:35;;;;;;;1.60;1.17;;;17.70;98.20;;;;;;4974367;28;20486;-80
2023/08/01 06:47:35;;;;;;;1.60;1.00;;;18.00;98.20;;;;;;4965780;28;21049;-79
2023/08/01 06:50:02;;;;;;;1.53;0.90;;;18.10;98.20;;;;;;4978720;28;20526;-80
2023/08/01 06:52:29;;;;;;;1.53;1.00;;;18.10;98.20;;;;;;4968954;28;20481;-81
2023/08/01 06:54:59;;;;;;;1.60;1.00;;;18.10;98.20;;;;;;4977543;28;20544;-82
2023/08/01 06:57:26;;;;;;;1.60;1.00;;;18.10;98.20;;;;;;4966157;28;20485;-80
2023/08/01 07:00:11;;;;;;;1.57;0.90;;;18.20;98.20;;;;;;4981511;28;20489;-81
2023/08/01 07:03:14;;;;;;;1.60;0.90;;;18.30;98.20;;;;;;4971514;28;20469;-81
2023/08/01 07:08:57;;;;;;;1.60;1.00;;;18.40;98.20;;;;;;4874036;29;20981;-80
2023/08/01 07:11:25;;;;;;;1.57;1.00;;;18.40;98.20;;;;;;4949832;28;20667;-81
2023/08/01 07:13:52;;;;;;;1.60;0.90;;;18.40;98.20;;;;;;4970711;28;20488;-81
2023/08/01 07:16:19;;;;;;;1.60;1.00;;;18.60;98.20;;;;;;4968368;28;20482;-81
2023/08/01 07:18:48;;;;;;;1.60;1.10;;;18.80;98.20;;;;;;4965329;28;20464;-81
2023/08/01 07:21:15;;;;;;;1.50;0.90;;;19.00;98.20;;;;;;4972247;28;20486;-81
2023/08/01 07:23:41;;;;;;;1.60;0.90;;;19.10;98.20;;;;;;4973290;28;20485;-80
2023/08/01 07:26:08;;;;;;;1.50;0.90;;;19.10;98.20;;;;;;4972067;28;20501;-81
2023/08/01 07:28:36;;;;;;;1.57;0.90;;;19.10;98.20;;;;;;4973875;28;20519;-81
2023/08/01 07:31:05;;;;;;;1.57;0.90;;;19.20;98.20;;;;;;4965831;28;20557;-79
2023/08/01 07:33:33;;;;;;;1.50;0.90;;;19.30;98.20;;;;;;4973931;28;20454;-80
2023/08/01 07:36:00;;;;;;;1.60;0.90;;;19.40;98.20;;;;;;4970313;28;20476;-79
2023/08/01 07:38:35;;;;;;;1.57;0.93;;;19.40;98.20;;;;;;4972281;28;20930;-78
2023/08/01 07:41:04;;;;;;;1.57;1.00;;;19.40;98.20;;;;;;4972924;28;20467;-81
2023/08/01 07:43:31;;;;;;;1.50;0.90;;;19.40;98.20;;;;;;4968312;28;21046;-82
2023/08/01 07:46:00;;;;;;;1.53;0.90;;;19.30;98.20;;;;;;4972195;28;20482;-81
2023/08/01 07:48:27;;;;;;;1.53;1.00;;;19.30;98.20;;;;;;4983419;28;20461;-82
2023/08/01 07:50:54;;;;;;;1.60;0.90;;;19.20;98.20;;;;;;4974716;28;20492;-81
2023/08/01 07:53:20;;;;;;;1.57;1.00;;;19.20;98.20;;;;;;4973454;28;20961;-81
2023/08/01 07:55:47;;;;;;;1.50;0.90;;;19.20;98.20;;;;;;4980622;28;20801;-81
2023/08/01 07:58:14;;;;;;;1.53;0.90;;;19.40;98.20;;;;;;4965363;28;20478;-81
2023/08/01 08:00:41;;;;;;;1.53;0.90;;;19.50;98.20;;;;;;4973014;28;20461;-82
2023/08/01 08:03:09;;;;;;;1.57;0.90;;;19.50;98.20;;;;;;4962109;28;20588;-81
2023/08/01 08:05:38;;;;;;;1.53;0.90;;;19.60;98.20;;;;;;4975255;28;20485;-80
2023/08/01 08:08:06;;;;;;;1.50;0.90;;;19.60;98.20;;;;;;4959770;28;20532;-77
2023/08/01 08:10:32;;;;;;;1.53;0.90;;;19.70;98.20;;;;;;4978533;28;20998;-80
2023/08/01 08:12:59;;;;;;;1.57;0.90;;;19.70;98.20;;;;;;4968372;28;20486;-80
2023/08/01 08:15:26;;;;;;;1.60;0.90;;;19.70;98.20;;;;;;4981757;28;20488;-81
2023/08/01 08:17:53;;;;;;;1.53;0.90;;;19.60;98.20;;;;;;4970955;28;21031;-82
2023/08/01 08:20:21;;;;;;;1.90;1.20;;;19.60;98.20;;;;;;4981959;28;20552;-80
2023/08/01 08:22:48;;;;;;;1.50;0.90;;;19.60;98.20;;;;;;4971390;28;20489;-81
2023/08/01 08:28:30;;;;;;;1.50;0.90;;;19.60;98.20;;;;;;4960107;28;20504;-83
2023/08/01 08:30:57;;;;;;;1.57;1.00;;;19.70;98.20;;;;;;4977233;28;20457;-80
2023/08/01 08:33:24;;;;;;;1.53;0.90;;;19.80;98.20;;;;;;4978911;28;20454;-80
2023/08/01 08:36:16;;;;;;;1.50;0.90;;;19.80;98.20;;;;;;4971752;28;20972;-80
2023/08/01 08:38:43;;;;;;;1.50;0.90;;;19.70;98.20;;;;;;4981334;28;20974;-80
2023/08/01 08:41:44;;;;;;;;;;;;;;;;;;;;;
2023/08/01 08:44:12;;;;;;;1.53;0.90;;;19.70;98.20;;;;;;4978387;28;21065;-81
2023/08/01 08:46:52;;;;;;;1.50;0.90;;;19.80;98.20;;;;;;4967197;28;20481;-79
2023/08/01 08:49:21;;;;;;;1.50;0.87;;;19.90;98.20;;;;;;4972877;28;20556;-78
2023/08/01 08:51:50;;;;;;;1.50;0.90;;;20.00;98.20;;;;;;4969201;28;20493;-80
2023/08/01 08:54:18;;;;;;;1.50;0.90;;;20.10;98.20;;;;;;4980113;28;20511;-81
2023/08/01 08:56:45;;;;;;;1.57;0.90;;;20.10;98.20;;;;;;4969829;28;20563;-80
2023/08/01 08:59:13;;;;;;;1.53;0.90;;;20.10;98.20;;;;;;4979098;28;20988;-80
2023/08/01 09:01:40;;;;;;;1.53;0.90;;;20.10;98.20;;;;;;4972677;28;20512;-79
2023/08/01 09:04:10;;;;;;;1.50;0.90;;;20.20;98.20;;;;;;4978686;28;20489;-80
2023/08/01 09:06:45;;;;;;;1.50;0.90;;;20.30;98.20;;;;;;4972221;28;20572;-81
2023/08/01 09:09:15;;;;;;;1.53;0.90;;;20.30;98.20;;;;;;4978554;28;20461;-82
2023/08/01 09:11:45;;;;;;;1.57;0.90;;;20.30;98.20;;;;;;4969611;28;20661;-79
2023/08/01 09:14:12;;;;;;;1.50;0.90;;;20.30;98.20;;;;;;4968164;28;20474;-81
2023/08/01 09:16:41;;;;;;;1.50;0.90;;;20.30;98.20;;;;;;4973287;28;20757;-80
2023/08/01 09:19:08;;;;;;;1.53;0.90;;;20.40;98.20;;;;;;4980341;28;20572;-81
2023/08/01 09:21:37;;;;;;;1.60;1.00;;;20.80;98.20;;;;;;4976797;28;20600;-81
2023/08/01 09:24:11;;;;;;;1.50;0.90;;;21.00;98.20;;;;;;4981511;28;20581;-80
2023/08/01 09:26:39;;;;;;;1.50;0.90;;;21.30;98.20;;;;;;4972953;28;20494;-80
2023/08/01 09:29:06;;;;;;;1.57;0.90;;;21.40;98.20;;;;;;4984661;28;20462;-81
2023/08/01 09:31:35;;;;;;;1.50;0.90;;;21.40;98.20;;;;;;4975072;28;21031;-81
2023/08/01 09:34:05;;;;;;;1.50;0.90;;;21.50;98.20;;;;;;4987740;28;20543;-78
2023/08/01 09:36:32;;;;;;;1.53;0.90;;;21.80;98.20;;;;;;4978674;28;20476;-82
2023/08/01 09:39:11;;;;;;;1.60;0.93;;;22.10;98.20;;;;;;4989525;28;20735;-81
2023/08/01 09:41:55;;;;;;;1.50;0.90;;;22.40;98.20;;;;;;4972587;28;20857;-80
2023/08/01 09:44:22;;;;;;;1.57;0.90;;;22.50;98.20;;;;;;4977472;28;21044;-80
2023/08/01 09:46:57;;;;;;;1.57;0.90;;;22.50;98.20;;;;;;4968671;28;20497;-82
2023/08/01 09:49:24;;;;;;;1.50;0.90;;;22.50;98.20;;;;;;4979827;28;20465;-81
2023/08/01 09:51:54;;;;;;;1.50;0.80;;;22.50;98.20;;;;;;4968781;28;20497;-79
2023/08/01 09:54:22;;;;;;;1.57;0.90;;;22.50;98.20;;;;;;4979269;28;20591;-79
2023/08/01 09:56:52;;;;;;;1.70;1.00;;;22.70;98.20;;;;;;4972577;28;20517;-78
2023/08/01 09:59:23;;;;;;;1.77;1.20;;;23.00;98.20;;;;;;4979600;28;20836;-79
2023/08/01 10:01:54;;;;;;;1.60;0.90;;;23.10;98.20;;;;;;4960966;28;20442;-79
2023/08/01 10:04:36;;;;;;;1.57;0.90;;;23.30;98.20;;;;;;4977800;28;20232;-80
2023/08/01 10:07:09;;;;;;;1.60;1.10;;;23.60;98.20;;;;;;4962951;28;20799;-81
2023/08/01 10:09:37;;;;;;;1.50;0.90;;;23.90;98.20;;;;;;4979880;28;20457;-81
2023/08/01 10:12:07;;;;;;;1.53;0.80;;;24.20;98.00;;;;;;4972805;28;20524;-82
2023/08/01 10:14:42;;;;;;;2.43;1.20;;;24.30;97.00;;;;;;4983439;28;20481;-83
2023/08/01 10:17:10;;;;;;;1.50;0.80;;;24.50;96.70;;;;;;4975083;28;20488;-80
2023/08/01 10:19:38;;;;;;;1.53;0.90;;;24.50;96.90;;;;;;4980135;28;21014;-81
2023/08/01 10:22:07;;;;;;;1.50;0.80;;;24.40;97.40;;;;;;4965748;28;20478;-81
2023/08/01 10:24:34;;;;;;;1.50;0.90;;;24.30;96.40;;;;;;4983493;28;21130;-81
2023/08/01 10:27:13;;;;;;;1.50;0.83;;;24.10;97.40;;;;;;4967541;28;20928;-81
2023/08/01 10:29:58;;;;;;;1.50;0.80;;;23.90;97.50;;;;;;4980567;28;20476;-81
2023/08/01 10:32:31;;;;;;;1.60;1.20;;;23.70;97.40;;;;;;4972800;28;20568;-82
2023/08/01 10:35:01;;;;;;;1.50;0.80;;;23.70;97.40;;;;;;4983393;28;20642;-81
2023/08/01 10:37:45;;;;;;;1.60;1.10;;;23.90;97.50;;;;;;4970200;28;20564;-81
2023/08/01 10:40:14;;;;;;;1.50;0.80;;;24.00;97.20;;;;;;4979901;28;21023;-83
2023/08/01 10:42:44;;;;;;;1.50;0.90;;;24.00;96.90;;;;;;4964722;28;20478;-79
2023/08/01 10:45:22;;;;;;;1.70;1.20;;;23.90;97.10;;;;;;4977735;28;20492;-79
2023/08/01 10:48:13;;;;;;;1.50;0.80;;;23.90;97.50;;;;;;4966368;28;20600;-78
2023/08/01 10:50:40;;;;;;;1.50;0.90;;;23.80;96.10;;;;;;4954007;28;21002;-81
2023/08/01 10:53:10;;;;;;;1.50;0.90;;;23.60;96.70;;;;;;4965850;28;20550;-80
2023/08/01 10:55:42;;;;;;;1.50;0.90;;;23.70;96.30;;;;;;4976829;28;20592;-81
2023/08/01 10:58:11;;;;;;;1.50;0.80;;;23.80;97.20;;;;;;4966898;28;20493;-80
2023/08/01 11:00:38;;;;;;;1.50;0.90;;;24.10;95.80;;;;;;4977585;28;20492;-81
2023/08/01 11:03:05;;;;;;;1.50;0.87;;;24.30;94.20;;;;;;4959773;28;20862;-80
2023/08/01 11:05:32;;;;;;;1.50;0.90;;;24.20;93.20;;;;;;4977523;28;20497;-81
2023/08/01 11:08:00;;;;;;;1.50;0.87;;;24.00;94.20;;;;;;4966472;28;21020;-81
2023/08/01 11:10:28;;;;;;;1.50;0.90;;;23.80;95.40;;;;;;4976989;28;20870;-80
2023/08/01 11:12:55;;;;;;;1.50;0.83;;;23.60;96.40;;;;;;4961791;28;20570;-81
2023/08/01 11:15:24;;;;;;;1.50;0.80;;;23.60;96.20;;;;;;4977357;28;20473;-81
2023/08/01 11:17:53;;;;;;;1.50;0.80;;;23.90;97.10;;;;;;4970366;28;20508;-83
2023/08/01 11:20:21;;;;;;;1.50;0.90;;;24.20;95.30;;;;;;4978430;28;20596;-81
2023/08/01 11:22:56;;;;;;;1.93;1.10;;;24.40;94.50;;;;;;4967002;28;20477;-81
2023/08/01 11:25:35;;;;;;;1.50;1.00;;;24.60;93.20;;;;;;4983031;28;20502;-78
2023/08/01 11:28:07;;;;;;;1.50;0.90;;;24.80;93.00;;;;;;4949393;28;21015;-80
2023/08/01 11:30:35;;;;;;;1.50;0.90;;;25.20;92.20;;;;;;4981373;28;20552;-78
2023/08/01 11:33:04;;;;;;;1.63;1.20;;;25.50;90.20;;;;;;4949468;28;20509;-82
2023/08/01 11:35:31;;;;;;;1.50;0.80;;;25.50;91.10;;;;;;4980482;28;20495;-78
2023/08/01 11:37:59;;;;;;;1.50;0.90;;;25.30;91.30;;;;;;4968837;28;20493;-80
2023/08/01 11:40:26;;;;;;;1.50;0.80;;;25.10;90.20;;;;;;4972743;28;20521;-81
2023/08/01 11:42:58;;;;;;;1.50;0.87;;;25.00;91.00;;;;;;4966581;28;20581;-84
2023/08/01 11:45:26;;;;;;;1.50;0.80;;;24.80;88.70;;;;;;4974821;28;20502;-80
2023/08/01 11:47:54;;;;;;;1.50;0.80;;;24.30;90.30;;;;;;4960855;28;20485;-78
2023/08/01 11:50:26;;;;;;;1.50;0.83;;;23.80;92.40;;;;;;4977149;28;20552;-79
2023/08/01 11:52:53;;;;;;;1.50;0.80;;;23.50;94.30;;;;;;4963235;28;20497;-80
2023/08/01 11:55:22;;;;;;;1.50;0.90;;;23.10;95.30;;;;;;4976303;28;20474;-80
2023/08/01 11:57:54;;;;;;;1.50;0.90;;;22.60;96.30;;;;;;4960860;28;20564;-81
2023/08/01 12:00:23;;;;;;;1.50;0.80;;;22.40;98.20;;;;;;4980426;28;20459;-77
2023/08/01 12:02:50;;;;;;;1.50;0.87;;;22.20;98.20;;;;;;4956132;28;20572;-80
2023/08/01 12:05:24;;;;;;;1.50;0.90;;;22.00;98.20;;;;;;4975404;28;20481;-80
2023/08/01 12:07:52;;;;;;;1.50;0.87;;;22.00;98.20;;;;;;4948847;28;20650;-80
2023/08/01 12:10:18;;;;;;;1.50;0.80;;;22.20;98.20;;;;;;4974578;28;20485;-82
2023/08/01 12:12:47;;;;;;;1.50;0.83;;;22.40;98.20;;;;;;4965475;28;20484;-79
2023/08/01 12:15:15;;;;;;;1.50;0.90;;;22.40;98.20;;;;;;4976990;28;20462;-79
2023/08/01 12:17:41;;;;;;;1.50;0.90;;;22.30;98.20;;;;;;4966530;28;20481;-79
2023/08/01 12:20:09;;;;;;;1.50;0.80;;;22.20;98.20;;;;;;4977131;28;20467;-81
2023/08/01 12:22:38;;;;;;;1.50;0.90;;;22.50;98.20;;;;;;4968614;28;21040;-79
2023/08/01 12:25:05;;;;;;;1.47;0.90;;;22.80;98.20;;;;;;4968894;28;21054;-78
2023/08/01 12:27:32;;;;;;;1.50;0.87;;;22.90;98.20;;;;;;4964233;28;20706;-74
2023/08/01 12:29:59;;;;;;;1.70;1.27;;;22.70;98.20;;;;;;4977426;28;20454;-76
2023/08/01 12:32:26;;;;;;;1.47;0.90;;;22.40;98.20;;;;;;4961868;28;20482;-76
2023/08/01 12:34:53;;;;;;;1.50;0.90;;;22.10;98.20;;;;;;4972976;28;20774;-78
2023/08/01 12:37:19;;;;;;;1.50;0.90;;;21.90;98.20;;;;;;4958714;28;20576;-80
2023/08/01 12:39:47;;;;;;;1.50;0.90;;;21.80;98.20;;;;;;4975680;28;20497;-79
2023/08/01 12:42:14;;;;;;;1.50;0.90;;;21.70;98.20;;;;;;4965851;28;20489;-79
2023/08/01 12:44:41;;;;;;;1.50;0.90;;;21.70;98.20;;;;;;4976507;28;20492;-79
2023/08/01 12:47:11;;;;;;;1.50;0.90;;;21.70;98.20;;;;;;4963071;28;20962;-80
2023/08/01 12:49:38;;;;;;;1.50;0.90;;;21.60;98.20;;;;;;4973296;28;20480;-80
2023/08/01 12:52:05;;;;;;;1.60;1.20;;;21.60;98.20;;;;;;4962817;28;20547;-79
2023/08/01 12:54:32;;;;;;;1.50;0.90;;;21.60;98.20;;;;;;4974857;28;20481;-80
2023/08/01 12:57:00;;;;;;;1.50;0.90;;;21.60;98.20;;;;;;4967594;28;20493;-78
2023/08/01 12:59:27;;;;;;;1.50;0.90;;;21.60;98.20;;;;;;4982042;28;20466;-79
2023/08/01 13:01:54;;;;;;;1.50;0.90;;;21.50;98.20;;;;;;4963597;28;20478;-78
2023/08/01 13:04:21;;;;;;;1.50;0.90;;;21.50;98.20;;;;;;4974930;28;20490;-76
2023/08/01 13:06:47;;;;;;;1.50;0.90;;;21.40;98.20;;;;;;4965841;28;20493;-75
2023/08/01 13:09:14;;;;;;;1.50;0.90;;;21.20;98.20;;;;;;5325528;23;20581;-78
2023/08/01 13:11:43;;;;;;;1.50;0.90;;;21.20;98.20;;;;;;5011538;28;20474;-80
2023/08/01 13:14:11;;;;;;;1.50;0.90;;;21.30;98.20;;;;;;5020099;28;20459;-80
2023/08/01 13:16:38;;;;;;;1.50;0.90;;;21.40;98.20;;;;;;5005773;28;20643;-79
2023/08/01 13:19:06;;;;;;;1.50;0.90;;;21.60;98.20;;;;;;5019209;28;20541;-80
2023/08/01 13:21:33;;;;;;;1.50;0.90;;;21.70;98.20;;;;;;5037916;23;20534;-84